createdAt,value
2023-04-20T00:00:20.042Z,24.10
2023-04-20T00:01:20.082Z,24.09
2023-04-20T00:02:20.286Z,24.11
2023-04-20T00:03:20.341Z,24.10
2023-04-20T00:04:20.245Z,24.10
2023-04-20T00:05:20.338Z,24.10
2023-04-20T00:06:20.353Z,24.10
2023-04-20T00:07:20.418Z,24.10
2023-04-20T00:08:20.472Z,24.10
2023-04-20T00:09:20.540Z,24.10
2023-04-20T00:10:20.589Z,24.09
2023-04-20T00:11:20.659Z,24.09
2023-04-20T00:12:20.738Z,24.09
2023-04-20T00:13:20.819Z,24.09
2023-04-20T00:14:20.844Z,24.08
2023-04-20T00:15:20.910Z,24.09
2023-04-20T00:16:20.993Z,24.08
2023-04-20T00:17:21.079Z,24.08
2023-04-20T00:18:21.115Z,24.09
2023-04-20T00:19:21.180Z,24.09
2023-04-20T00:20:21.229Z,24.09
2023-04-20T00:21:21.278Z,24.08
2023-04-20T00:22:21.337Z,24.09
2023-04-20T00:23:21.441Z,24.09
2023-04-20T00:24:21.457Z,24.09
2023-04-20T00:25:21.526Z,24.08
2023-04-20T00:26:21.599Z,24.08
2023-04-20T00:27:21.652Z,24.08
2023-04-20T00:28:21.708Z,24.08
2023-04-20T00:29:21.754Z,24.08
2023-04-20T00:30:21.813Z,24.08
2023-04-20T00:31:21.881Z,24.08
2023-04-20T00:32:21.872Z,24.08
2023-04-20T00:33:21.928Z,24.08
2023-04-20T00:34:21.954Z,24.08
2023-04-20T00:35:22.004Z,24.08
2023-04-20T00:36:22.073Z,24.08
2023-04-20T00:37:22.117Z,24.08
2023-04-20T00:38:22.179Z,24.08
2023-04-20T00:39:22.199Z,24.08
2023-04-20T00:40:22.248Z,24.07
2023-04-20T00:41:22.312Z,24.08
2023-04-20T00:42:22.343Z,24.07
2023-04-20T00:43:22.415Z,24.07
2023-04-20T00:44:22.474Z,24.07
2023-04-20T00:45:22.528Z,24.08
2023-04-20T00:46:22.621Z,24.07
2023-04-20T00:47:22.646Z,24.07
2023-04-20T00:48:22.711Z,24.08
2023-04-20T00:49:22.774Z,24.07
2023-04-20T00:50:22.834Z,24.07
2023-04-20T00:51:22.936Z,24.07
2023-04-20T00:52:22.949Z,24.07
2023-04-20T00:53:23.008Z,24.06
2023-04-20T00:54:23.088Z,24.07
2023-04-20T00:55:23.130Z,24.07
2023-04-20T00:56:23.190Z,24.07
2023-04-20T00:57:23.237Z,24.06
2023-04-20T00:58:23.306Z,24.07
2023-04-20T00:59:23.374Z,24.06
2023-04-20T01:00:23.419Z,24.06
2023-04-20T01:01:23.476Z,24.06
2023-04-20T01:02:23.722Z,24.07
2023-04-20T01:03:23.724Z,24.06
2023-04-20T01:04:23.802Z,24.06
2023-04-20T01:05:23.649Z,24.06
2023-04-20T01:06:23.712Z,24.06
2023-04-20T01:07:23.752Z,24.06
2023-04-20T01:08:23.799Z,24.06
2023-04-20T01:09:23.860Z,24.06
2023-04-20T01:10:23.933Z,24.06
2023-04-20T01:11:23.997Z,24.07
2023-04-20T01:12:24.055Z,24.06
2023-04-20T01:13:24.112Z,24.06
2023-04-20T01:14:24.172Z,24.05
2023-04-20T01:15:24.220Z,24.06
2023-04-20T01:16:24.307Z,24.06
2023-04-20T01:17:24.339Z,24.06
2023-04-20T01:18:24.378Z,24.06
2023-04-20T01:19:24.430Z,24.05
2023-04-20T01:20:24.488Z,24.04
2023-04-20T01:21:24.557Z,24.05
2023-04-20T01:22:24.609Z,24.05
2023-04-20T01:23:24.657Z,24.05
2023-04-20T01:24:24.712Z,24.05
2023-04-20T01:25:24.772Z,24.04
2023-04-20T01:26:24.819Z,24.05
2023-04-20T01:27:24.872Z,24.04
2023-04-20T01:28:24.921Z,24.05
2023-04-20T01:29:24.944Z,24.05
2023-04-20T01:30:24.995Z,24.04
2023-04-20T01:31:25.126Z,24.05
2023-04-20T01:32:25.135Z,24.04
2023-04-20T01:33:25.187Z,24.04
2023-04-20T01:34:25.249Z,24.05
2023-04-20T01:35:25.313Z,24.04
2023-04-20T01:36:25.397Z,24.04
2023-04-20T01:37:25.519Z,24.04
2023-04-20T01:38:25.519Z,24.04
2023-04-20T01:39:25.635Z,24.04
2023-04-20T01:40:25.666Z,24.04
2023-04-20T01:41:25.729Z,24.04
2023-04-20T01:42:25.787Z,24.04
2023-04-20T01:43:25.870Z,24.04
2023-04-20T01:44:25.945Z,24.04
2023-04-20T01:45:26.014Z,24.04
2023-04-20T01:46:26.081Z,24.04
2023-04-20T01:47:26.176Z,24.04
2023-04-20T01:48:26.225Z,24.03
2023-04-20T01:49:26.288Z,24.04
2023-04-20T01:50:26.331Z,24.04
2023-04-20T01:51:26.403Z,24.04
2023-04-20T01:52:26.464Z,24.04
2023-04-20T01:53:26.602Z,24.03
2023-04-20T01:54:26.626Z,24.03
2023-04-20T01:55:26.679Z,24.03
2023-04-20T01:56:26.745Z,24.04
2023-04-20T01:57:26.818Z,24.04
2023-04-20T01:58:26.890Z,24.04
2023-04-20T01:59:26.956Z,24.03
2023-04-20T02:00:27.018Z,24.03
2023-04-20T02:01:27.185Z,24.03
2023-04-20T02:02:27.419Z,24.02
2023-04-20T02:03:27.323Z,24.03
2023-04-20T02:04:27.259Z,24.03
2023-04-20T02:05:27.334Z,24.04
2023-04-20T02:06:27.406Z,24.03
2023-04-20T02:07:27.452Z,24.03
2023-04-20T02:08:27.517Z,24.03
2023-04-20T02:09:27.610Z,24.03
2023-04-20T02:10:27.669Z,24.03
2023-04-20T02:11:27.697Z,24.02
2023-04-20T02:12:27.763Z,24.03
2023-04-20T02:13:27.842Z,24.03
2023-04-20T02:14:27.922Z,24.03
2023-04-20T02:15:27.967Z,24.03
2023-04-20T02:16:28.069Z,24.03
2023-04-20T02:17:28.148Z,24.03
2023-04-20T02:18:28.161Z,24.03
2023-04-20T02:19:28.245Z,24.03
2023-04-20T02:20:28.326Z,24.03
2023-04-20T02:21:28.358Z,24.03
2023-04-20T02:22:28.434Z,24.02
2023-04-20T02:23:28.503Z,24.03
2023-04-20T02:24:28.564Z,24.03
2023-04-20T02:25:28.640Z,24.02
2023-04-20T02:26:28.704Z,24.03
2023-04-20T02:27:28.757Z,24.02
2023-04-20T02:28:28.827Z,24.02
2023-04-20T02:29:28.891Z,24.02
2023-04-20T02:30:28.948Z,24.02
2023-04-20T02:31:29.061Z,24.02
2023-04-20T02:32:29.139Z,24.01
2023-04-20T02:33:29.119Z,24.01
2023-04-20T02:34:29.159Z,24.01
2023-04-20T02:35:29.237Z,24.02
2023-04-20T02:36:29.285Z,24.02
2023-04-20T02:37:29.355Z,24.02
2023-04-20T02:38:29.467Z,24.01
2023-04-20T02:39:29.472Z,24.02
2023-04-20T02:40:29.543Z,24.02
2023-04-20T02:41:29.610Z,24.02
2023-04-20T02:42:29.668Z,24.02
2023-04-20T02:43:29.725Z,24.01
2023-04-20T02:44:29.774Z,24.01
2023-04-20T02:45:29.852Z,24.01
2023-04-20T02:46:29.937Z,24.01
2023-04-20T02:47:30.001Z,24.01
2023-04-20T02:48:30.026Z,24.01
2023-04-20T02:49:30.090Z,24.00
2023-04-20T02:50:30.126Z,24.00
2023-04-20T02:51:30.152Z,24.01
2023-04-20T02:52:30.207Z,24.01
2023-04-20T02:53:30.270Z,24.01
2023-04-20T02:54:30.325Z,24.00
2023-04-20T02:55:30.398Z,24.01
2023-04-20T02:56:30.456Z,24.00
2023-04-20T02:57:30.511Z,24.00
2023-04-20T02:58:30.586Z,24.00
2023-04-20T02:59:30.650Z,23.99
2023-04-20T03:00:30.723Z,23.97
2023-04-20T03:01:30.820Z,23.96
2023-04-20T03:02:30.996Z,23.95
2023-04-20T03:03:30.989Z,23.93
2023-04-20T03:04:31.024Z,23.92
2023-04-20T03:05:30.853Z,23.88
2023-04-20T03:06:30.850Z,23.84
2023-04-20T03:07:30.849Z,23.80
2023-04-20T03:08:30.843Z,23.77
2023-04-20T03:09:30.834Z,23.74
2023-04-20T03:10:30.859Z,23.71
2023-04-20T03:11:30.837Z,23.69
2023-04-20T03:12:30.830Z,23.66
2023-04-20T03:13:30.951Z,23.62
2023-04-20T03:14:30.833Z,23.58
2023-04-20T03:15:30.837Z,23.55
2023-04-20T03:16:30.886Z,23.52
2023-04-20T03:17:30.838Z,23.49
2023-04-20T03:18:30.826Z,23.47
2023-04-20T03:19:30.845Z,23.46
2023-04-20T03:20:30.832Z,23.44
2023-04-20T03:21:30.888Z,23.42
2023-04-20T03:22:30.896Z,23.40
2023-04-20T03:23:30.938Z,23.38
2023-04-20T03:24:30.971Z,23.37
2023-04-20T03:25:31.006Z,23.35
2023-04-20T03:26:31.048Z,23.33
2023-04-20T03:27:31.087Z,23.31
2023-04-20T03:28:31.133Z,23.29
2023-04-20T03:29:31.158Z,23.27
2023-04-20T03:30:31.196Z,23.26
2023-04-20T03:31:31.293Z,23.24
2023-04-20T03:32:32.764Z,23.22
2023-04-20T03:33:31.332Z,23.20
2023-04-20T03:34:31.375Z,23.18
2023-04-20T03:35:31.423Z,23.17
2023-04-20T03:36:31.504Z,23.14
2023-04-20T03:37:31.524Z,23.13
2023-04-20T03:38:31.577Z,23.13
2023-04-20T03:39:31.619Z,23.12
2023-04-20T03:40:31.675Z,23.11
2023-04-20T03:41:31.735Z,23.10
2023-04-20T03:42:31.788Z,23.09
2023-04-20T03:43:31.842Z,23.07
2023-04-20T03:44:31.880Z,23.06
2023-04-20T03:45:31.962Z,23.05
2023-04-20T03:46:32.006Z,23.03
2023-04-20T03:47:32.093Z,23.02
2023-04-20T03:48:32.128Z,23.02
2023-04-20T03:49:32.191Z,23.01
2023-04-20T03:50:32.252Z,23.00
2023-04-20T03:51:32.338Z,22.99
2023-04-20T03:52:32.403Z,22.99
2023-04-20T03:53:32.448Z,22.98
2023-04-20T03:54:32.509Z,22.97
2023-04-20T03:55:32.586Z,22.95
2023-04-20T03:56:32.657Z,22.94
2023-04-20T03:57:32.712Z,22.93
2023-04-20T03:58:32.775Z,22.92
2023-04-20T03:59:32.835Z,22.90
2023-04-20T04:00:32.906Z,22.90
2023-04-20T04:01:32.992Z,22.89
2023-04-20T04:02:33.151Z,22.87
2023-04-20T04:03:33.213Z,22.87
2023-04-20T04:04:33.486Z,22.86
2023-04-20T04:05:33.279Z,22.85
2023-04-20T04:06:33.329Z,22.84
2023-04-20T04:07:33.385Z,22.82
2023-04-20T04:08:33.457Z,22.83
2023-04-20T04:09:33.523Z,22.82
2023-04-20T04:10:33.599Z,22.81
2023-04-20T04:11:33.672Z,22.82
2023-04-20T04:12:33.748Z,22.80
2023-04-20T04:13:34.796Z,22.80
2023-04-20T04:14:33.873Z,22.79
2023-04-20T04:15:33.944Z,22.79
2023-04-20T04:16:34.030Z,22.78
2023-04-20T04:17:34.063Z,22.76
2023-04-20T04:18:34.120Z,22.77
2023-04-20T04:19:34.188Z,22.76
2023-04-20T04:20:34.196Z,22.75
2023-04-20T04:21:34.205Z,22.74
2023-04-20T04:22:34.228Z,22.74
2023-04-20T04:23:34.225Z,22.74
2023-04-20T04:24:34.234Z,22.73
2023-04-20T04:25:34.248Z,22.73
2023-04-20T04:26:34.259Z,22.74
2023-04-20T04:27:34.274Z,22.73
2023-04-20T04:28:34.283Z,22.72
2023-04-20T04:29:34.336Z,22.70
2023-04-20T04:30:34.408Z,22.71
2023-04-20T04:31:34.488Z,22.70
2023-04-20T04:32:34.532Z,22.68
2023-04-20T04:33:34.478Z,22.68
2023-04-20T04:34:34.484Z,22.68
2023-04-20T04:35:34.510Z,22.68
2023-04-20T04:36:34.494Z,22.67
2023-04-20T04:37:34.513Z,22.67
2023-04-20T04:38:34.537Z,22.66
2023-04-20T04:39:34.546Z,22.66
2023-04-20T04:40:34.560Z,22.65
2023-04-20T04:41:34.609Z,22.64
2023-04-20T04:42:34.676Z,22.64
2023-04-20T04:43:34.759Z,22.64
2023-04-20T04:44:34.806Z,22.63
2023-04-20T04:45:34.851Z,22.63
2023-04-20T04:46:35.051Z,22.62
2023-04-20T04:47:34.963Z,22.62
2023-04-20T04:48:34.995Z,22.62
2023-04-20T04:49:35.021Z,22.60
2023-04-20T04:50:35.061Z,22.60
2023-04-20T04:51:35.095Z,22.60
2023-04-20T04:52:35.159Z,22.60
2023-04-20T04:53:35.201Z,22.58
2023-04-20T04:54:35.274Z,22.57
2023-04-20T04:55:35.306Z,22.60
2023-04-20T04:56:35.372Z,22.61
2023-04-20T04:57:35.410Z,22.63
2023-04-20T04:58:35.468Z,22.65
2023-04-20T04:59:35.494Z,22.67
2023-04-20T05:00:35.540Z,22.71
2023-04-20T05:01:35.577Z,22.73
2023-04-20T05:02:35.776Z,22.76
2023-04-20T05:03:35.752Z,22.78
2023-04-20T05:04:35.844Z,22.80
2023-04-20T05:05:35.784Z,22.82
2023-04-20T05:06:35.825Z,22.83
2023-04-20T05:07:35.872Z,22.84
2023-04-20T05:08:35.937Z,22.87
2023-04-20T05:09:35.977Z,22.88
2023-04-20T05:10:36.045Z,22.90
2023-04-20T05:11:36.100Z,22.90
2023-04-20T05:12:36.172Z,22.91
2023-04-20T05:13:36.238Z,22.93
2023-04-20T05:14:36.270Z,22.94
2023-04-20T05:15:36.330Z,22.95
2023-04-20T05:16:36.463Z,22.96
2023-04-20T05:17:36.482Z,22.99
2023-04-20T05:18:36.552Z,22.99
2023-04-20T05:19:36.621Z,23.00
2023-04-20T05:20:36.689Z,23.01
2023-04-20T05:21:36.774Z,23.02
2023-04-20T05:22:36.897Z,23.03
2023-04-20T05:23:36.918Z,23.04
2023-04-20T05:24:36.988Z,23.06
2023-04-20T05:25:37.075Z,23.07
2023-04-20T05:26:37.124Z,23.09
2023-04-20T05:27:37.194Z,23.09
2023-04-20T05:28:37.267Z,23.08
2023-04-20T05:29:37.334Z,23.09
2023-04-20T05:30:37.396Z,23.08
2023-04-20T05:31:37.485Z,23.06
2023-04-20T05:32:37.533Z,23.03
2023-04-20T05:33:37.518Z,23.01
2023-04-20T05:34:37.515Z,23.00
2023-04-20T05:35:37.512Z,22.98
2023-04-20T05:36:37.530Z,22.96
2023-04-20T05:37:37.539Z,22.94
2023-04-20T05:38:37.521Z,22.91
2023-04-20T05:39:37.499Z,22.90
2023-04-20T05:40:37.589Z,22.88
2023-04-20T05:41:37.498Z,22.87
2023-04-20T05:42:37.510Z,22.84
2023-04-20T05:43:37.498Z,22.82
2023-04-20T05:44:37.508Z,22.82
2023-04-20T05:45:37.562Z,22.80
2023-04-20T05:46:37.532Z,22.77
2023-04-20T05:47:37.555Z,22.77
2023-04-20T05:48:37.523Z,22.77
2023-04-20T05:49:37.514Z,22.76
2023-04-20T05:50:37.544Z,22.75
2023-04-20T05:51:37.532Z,22.75
2023-04-20T05:52:37.536Z,22.74
2023-04-20T05:53:37.550Z,22.74
2023-04-20T05:54:37.552Z,22.73
2023-04-20T05:55:37.551Z,22.73
2023-04-20T05:56:37.552Z,22.73
2023-04-20T05:57:37.553Z,22.73
2023-04-20T05:58:37.593Z,22.71
2023-04-20T05:59:37.563Z,22.71
2023-04-20T06:00:37.562Z,22.72
2023-04-20T06:01:37.595Z,22.71
2023-04-20T06:02:37.726Z,22.69
2023-04-20T06:03:37.798Z,22.68
2023-04-20T06:04:37.886Z,22.68
2023-04-20T06:05:37.757Z,22.68
2023-04-20T06:06:37.703Z,22.67
2023-04-20T06:07:37.706Z,22.66
2023-04-20T06:08:37.752Z,22.65
2023-04-20T06:09:37.728Z,22.65
2023-04-20T06:11:57.295Z,22.61
2023-04-20T06:12:57.290Z,22.61
2023-04-20T06:13:57.268Z,22.60
2023-04-20T06:14:57.269Z,22.59
2023-04-20T06:15:57.282Z,22.59
2023-04-20T06:16:57.245Z,22.58
2023-04-20T06:17:57.267Z,22.59
2023-04-20T06:18:57.226Z,22.58
2023-04-20T06:19:57.220Z,22.58
2023-04-20T06:20:57.184Z,22.58
2023-04-20T06:21:58.380Z,22.57
2023-04-20T06:22:57.167Z,22.57
2023-04-20T06:23:57.148Z,22.58
2023-04-20T06:24:57.146Z,22.57
2023-04-20T06:25:57.119Z,22.56
2023-04-20T06:26:57.123Z,22.55
2023-04-20T06:27:57.117Z,22.56
2023-04-20T06:28:57.099Z,22.56
2023-04-20T06:29:57.086Z,22.55
2023-04-20T06:30:57.067Z,22.55
2023-04-20T06:31:57.053Z,22.54
2023-04-20T06:32:57.063Z,22.54
2023-04-20T06:33:57.047Z,22.55
2023-04-20T06:34:57.054Z,22.53
2023-04-20T06:35:57.034Z,22.53
2023-04-20T06:36:57.034Z,22.52
2023-04-20T06:37:57.001Z,22.52
2023-04-20T06:38:57.005Z,22.51
2023-04-20T06:39:56.996Z,22.51
2023-04-20T06:40:57.001Z,22.50
2023-04-20T06:41:56.985Z,22.50
2023-04-20T06:42:56.972Z,22.49
2023-04-20T06:43:56.977Z,22.50
2023-04-20T06:44:56.972Z,22.49
2023-04-20T06:45:56.940Z,22.49
2023-04-20T06:46:57.003Z,22.49
2023-04-20T06:47:56.960Z,22.50
2023-04-20T06:48:56.952Z,22.49
2023-04-20T06:49:56.951Z,22.49
2023-04-20T06:50:56.940Z,22.49
2023-04-20T06:51:56.936Z,22.48
2023-04-20T06:52:56.925Z,22.48
2023-04-20T06:53:56.953Z,22.47
2023-04-20T06:54:56.915Z,22.46
2023-04-20T06:55:56.934Z,22.46
2023-04-20T06:56:56.901Z,22.45
2023-04-20T06:57:56.889Z,22.45
2023-04-20T06:58:56.913Z,22.45
2023-04-20T06:59:56.910Z,22.44
2023-04-20T07:00:56.903Z,22.44
2023-04-20T07:01:56.935Z,22.45
2023-04-20T07:02:56.990Z,22.45
2023-04-20T07:03:57.138Z,22.45
2023-04-20T07:04:56.936Z,22.46
2023-04-20T07:05:57.046Z,22.46
2023-04-20T07:06:56.876Z,22.46
2023-04-20T07:07:56.899Z,22.46
2023-04-20T07:08:56.883Z,22.46
2023-04-20T07:09:56.879Z,22.47
2023-04-20T07:10:56.904Z,22.47
2023-04-20T07:11:56.886Z,22.47
2023-04-20T07:12:56.889Z,22.47
2023-04-20T07:13:56.861Z,22.47
2023-04-20T07:14:56.867Z,22.47
2023-04-20T07:15:56.865Z,22.47
2023-04-20T07:16:56.884Z,22.47
2023-04-20T07:17:56.840Z,22.46
2023-04-20T07:18:56.831Z,22.47
2023-04-20T07:19:56.824Z,22.47
2023-04-20T07:20:56.830Z,22.46
2023-04-20T07:21:56.806Z,22.46
2023-04-20T07:22:56.799Z,22.45
2023-04-20T07:23:56.783Z,22.46
2023-04-20T07:24:56.766Z,22.45
2023-04-20T07:25:56.768Z,22.46
2023-04-20T07:26:56.774Z,22.45
2023-04-20T07:27:56.766Z,22.45
2023-04-20T07:28:56.882Z,22.45
2023-04-20T07:29:56.746Z,22.44
2023-04-20T07:30:56.780Z,22.44
2023-04-20T07:31:56.792Z,22.43
2023-04-20T07:32:56.802Z,22.43
2023-04-20T07:33:56.750Z,22.43
2023-04-20T07:34:56.740Z,22.42
2023-04-20T07:35:56.750Z,22.43
2023-04-20T07:36:56.726Z,22.43
2023-04-20T07:37:56.718Z,22.43
2023-04-20T07:38:56.880Z,22.42
2023-04-20T07:39:56.729Z,22.42
2023-04-20T07:40:56.738Z,22.42
2023-04-20T07:41:56.733Z,22.43
2023-04-20T07:42:56.757Z,22.43
2023-04-20T07:43:56.786Z,22.43
2023-04-20T07:44:56.917Z,22.43
2023-04-20T07:45:56.798Z,22.43
2023-04-20T07:46:56.781Z,22.43
2023-04-20T07:47:56.803Z,22.44
2023-04-20T07:48:56.810Z,22.44
2023-04-20T07:49:56.813Z,22.45
2023-04-20T07:50:56.816Z,22.45
2023-04-20T07:52:06.000Z,22.46
2023-04-20T07:52:57.799Z,22.44
2023-04-20T07:53:56.793Z,22.44
2023-04-20T07:54:56.792Z,22.45
2023-04-20T07:55:56.794Z,22.44
2023-04-20T07:56:56.795Z,22.45
2023-04-20T07:57:56.792Z,22.45
2023-04-20T07:58:56.785Z,22.46
2023-04-20T07:59:56.821Z,22.47
2023-04-20T08:00:56.824Z,22.46
2023-04-20T08:01:56.858Z,22.47
2023-04-20T08:02:56.956Z,22.46
2023-04-20T08:03:56.993Z,22.47
2023-04-20T08:04:56.932Z,22.47
2023-04-20T08:05:56.842Z,22.47
2023-04-20T08:06:56.774Z,22.48
2023-04-20T08:07:56.761Z,22.48
2023-04-20T08:08:56.826Z,22.49
2023-04-20T08:09:56.777Z,22.48
2023-04-20T08:10:56.756Z,22.48
2023-04-20T08:11:56.768Z,22.48
2023-04-20T08:12:56.744Z,22.49
2023-04-20T08:13:57.908Z,22.50
2023-04-20T08:14:56.726Z,22.51
2023-04-20T08:15:56.769Z,22.51
2023-04-20T08:16:56.816Z,22.51
2023-04-20T08:17:56.745Z,22.50
2023-04-20T08:18:56.709Z,22.51
2023-04-20T08:19:56.684Z,22.51
2023-04-20T08:20:56.682Z,22.51
2023-04-20T08:21:56.691Z,22.52
2023-04-20T08:22:56.671Z,22.51
2023-04-20T08:23:56.734Z,22.52
2023-04-20T08:24:56.637Z,22.51
2023-04-20T08:25:56.622Z,22.52
2023-04-20T08:26:56.625Z,22.53
2023-04-20T08:27:56.608Z,22.53
2023-04-20T08:28:56.626Z,22.53
2023-04-20T08:29:56.595Z,22.53
2023-04-20T08:30:56.673Z,22.54
2023-04-20T08:31:56.705Z,22.53
2023-04-20T08:32:56.652Z,22.54
2023-04-20T08:33:56.568Z,22.54
2023-04-20T08:34:56.572Z,22.54
2023-04-20T08:35:56.553Z,22.54
2023-04-20T08:36:56.555Z,22.54
2023-04-20T08:37:56.543Z,22.54
2023-04-20T08:38:56.538Z,22.55
2023-04-20T08:39:56.526Z,22.56
2023-04-20T08:40:56.544Z,22.56
2023-04-20T08:41:56.513Z,22.57
2023-04-20T08:42:56.514Z,22.58
2023-04-20T08:43:56.509Z,22.60
2023-04-20T08:44:56.497Z,22.59
2023-04-20T08:45:56.495Z,22.60
2023-04-20T08:46:56.596Z,22.61
2023-04-20T08:47:56.539Z,22.63
2023-04-20T08:48:56.498Z,22.64
2023-04-20T08:49:56.626Z,22.64
2023-04-20T08:50:56.529Z,22.63
2023-04-20T08:51:56.550Z,22.64
2023-04-20T08:52:56.577Z,22.65
2023-04-20T08:53:56.589Z,22.67
2023-04-20T08:54:57.980Z,22.69
2023-04-20T08:55:56.614Z,22.69
2023-04-20T08:56:56.645Z,22.69
2023-04-20T08:57:56.690Z,22.70
2023-04-20T08:58:56.729Z,22.70
2023-04-20T08:59:56.759Z,22.70
2023-04-20T09:00:56.818Z,22.70
2023-04-20T09:01:56.887Z,22.71
2023-04-20T09:02:56.999Z,22.72
2023-04-20T09:03:57.104Z,22.72
2023-04-20T09:04:57.113Z,22.75
2023-04-20T09:05:57.020Z,22.76
2023-04-20T09:06:57.083Z,22.80
2023-04-20T09:07:57.146Z,22.82
2023-04-20T09:08:57.218Z,22.84
2023-04-20T09:09:57.256Z,22.87
2023-04-20T09:10:57.314Z,22.90
2023-04-20T09:11:57.375Z,22.91
2023-04-20T09:12:57.434Z,22.93
2023-04-20T09:13:57.490Z,22.95
2023-04-20T09:14:57.532Z,22.98
2023-04-20T09:15:57.679Z,23.00
2023-04-20T09:16:57.628Z,23.01
2023-04-20T09:17:57.692Z,23.03
2023-04-20T09:18:57.708Z,23.05
2023-04-20T09:19:57.768Z,23.07
2023-04-20T09:20:57.773Z,23.10
2023-04-20T09:21:57.828Z,23.12
2023-04-20T09:22:57.855Z,23.14
2023-04-20T09:23:57.901Z,23.17
2023-04-20T09:24:57.927Z,23.19
2023-04-20T09:25:57.980Z,23.21
2023-04-20T09:26:58.023Z,23.24
2023-04-20T09:27:58.054Z,23.26
2023-04-20T09:28:58.092Z,23.26
2023-04-20T09:29:58.130Z,23.28
2023-04-20T09:30:58.147Z,23.30
2023-04-20T09:31:58.247Z,23.32
2023-04-20T09:32:58.231Z,23.33
2023-04-20T09:33:58.215Z,23.33
2023-04-20T09:34:58.211Z,23.34
2023-04-20T09:35:58.190Z,23.37
2023-04-20T09:36:58.199Z,23.39
2023-04-20T09:37:58.175Z,23.40
2023-04-20T09:38:58.174Z,23.42
2023-04-20T09:39:58.160Z,23.43
2023-04-20T09:40:58.145Z,23.45
2023-04-20T09:41:58.146Z,23.46
2023-04-20T09:42:58.146Z,23.47
2023-04-20T09:43:58.133Z,23.49
2023-04-20T09:44:58.120Z,23.50
2023-04-20T09:45:58.101Z,23.53
2023-04-20T09:46:58.072Z,23.54
2023-04-20T09:47:58.089Z,23.56
2023-04-20T09:48:58.061Z,23.59
2023-04-20T09:50:00.061Z,23.59
2023-04-20T09:50:58.053Z,23.60
2023-04-20T09:51:58.140Z,23.60
2023-04-20T09:52:58.145Z,23.61
2023-04-20T09:53:58.107Z,23.62
2023-04-20T09:54:58.099Z,23.63
2023-04-20T09:55:58.112Z,23.64
2023-04-20T09:56:58.153Z,23.66
2023-04-20T09:57:58.098Z,23.67
2023-04-20T09:58:58.071Z,23.69
2023-04-20T09:59:58.067Z,23.71
2023-04-20T10:00:58.055Z,23.73
2023-04-20T10:01:58.083Z,23.72
2023-04-20T10:02:58.117Z,23.74
2023-04-20T10:03:58.244Z,23.76
2023-04-20T10:04:58.007Z,23.78
2023-04-20T10:05:57.988Z,23.79
2023-04-20T10:06:58.005Z,23.80
2023-04-20T10:07:57.950Z,23.81
2023-04-20T10:08:57.925Z,23.83
2023-04-20T10:09:57.906Z,23.84
2023-04-20T10:10:57.886Z,23.85
2023-04-20T10:11:59.565Z,23.87
2023-04-20T10:12:57.860Z,23.89
2023-04-20T10:13:57.857Z,23.89
2023-04-20T10:14:57.840Z,23.89
2023-04-20T10:15:57.832Z,23.90
2023-04-20T10:16:57.861Z,23.91
2023-04-20T10:17:57.934Z,23.92
2023-04-20T10:18:57.834Z,23.95
2023-04-20T10:19:57.762Z,23.95
2023-04-20T10:20:57.740Z,23.96
2023-04-20T10:21:57.747Z,23.96
2023-04-20T10:22:57.706Z,23.97
2023-04-20T10:23:57.701Z,23.99
2023-04-20T10:24:57.680Z,24.01
2023-04-20T10:25:57.708Z,24.03
2023-04-20T10:26:57.669Z,24.04
2023-04-20T10:27:57.655Z,24.06
2023-04-20T10:28:57.644Z,24.05
2023-04-20T10:29:57.628Z,24.05
2023-04-20T10:30:57.613Z,24.05
2023-04-20T10:31:57.598Z,24.06
2023-04-20T10:32:57.620Z,24.06
2023-04-20T10:33:57.577Z,24.06
2023-04-20T10:34:57.587Z,24.06
2023-04-20T10:35:57.585Z,24.08
2023-04-20T10:36:57.626Z,24.08
2023-04-20T10:37:57.604Z,24.08
2023-04-20T10:38:57.586Z,24.09
2023-04-20T10:39:57.602Z,24.10
2023-04-20T10:40:57.640Z,24.10
2023-04-20T10:41:57.709Z,24.12
2023-04-20T10:42:57.768Z,24.13
2023-04-20T10:43:57.833Z,24.13
2023-04-20T10:44:57.884Z,24.14
2023-04-20T10:45:57.949Z,24.14
2023-04-20T10:46:57.951Z,24.15
2023-04-20T10:47:58.015Z,24.16
2023-04-20T10:48:57.992Z,24.16
2023-04-20T10:49:58.042Z,24.16
2023-04-20T10:50:58.092Z,24.17
2023-04-20T10:51:58.174Z,24.18
2023-04-20T10:52:58.204Z,24.17
2023-04-20T10:53:58.271Z,24.17
2023-04-20T10:54:58.302Z,24.19
2023-04-20T10:55:58.386Z,24.18
2023-04-20T10:56:58.421Z,24.19
2023-04-20T10:57:58.480Z,24.20
2023-04-20T10:59:00.485Z,24.22
2023-04-20T10:59:58.529Z,24.22
2023-04-20T11:00:58.493Z,24.23
2023-04-20T11:01:58.542Z,24.23
2023-04-20T11:02:58.584Z,24.25
2023-04-20T11:03:58.545Z,24.26
2023-04-20T11:04:58.475Z,24.28
2023-04-20T11:05:58.430Z,24.29
2023-04-20T11:06:58.410Z,24.31
2023-04-20T11:07:58.400Z,24.33
2023-04-20T11:08:58.388Z,24.33
2023-04-20T11:09:58.367Z,24.33
2023-04-20T11:10:58.358Z,24.33
2023-04-20T11:11:58.333Z,24.34
2023-04-20T11:12:58.365Z,24.33
2023-04-20T11:13:58.307Z,24.33
2023-04-20T11:14:58.293Z,24.33
2023-04-20T11:15:58.328Z,24.33
2023-04-20T11:16:58.382Z,24.31
2023-04-20T11:17:58.291Z,24.31
2023-04-20T11:18:58.249Z,24.32
2023-04-20T11:19:58.241Z,24.32
2023-04-20T11:20:58.208Z,24.30
2023-04-20T11:21:58.182Z,24.28
2023-04-20T11:22:58.183Z,24.28
2023-04-20T11:23:58.141Z,24.28
2023-04-20T11:24:58.145Z,24.27
2023-04-20T11:25:58.125Z,24.28
2023-04-20T11:26:58.150Z,24.28
2023-04-20T11:27:58.103Z,24.29
2023-04-20T11:28:58.093Z,24.29
2023-04-20T11:29:58.095Z,24.29
2023-04-20T11:30:58.065Z,24.30
2023-04-20T11:31:58.213Z,24.32
2023-04-20T11:32:58.238Z,24.34
2023-04-20T11:33:58.138Z,24.36
2023-04-20T11:35:06.088Z,24.36
2023-04-20T11:35:59.156Z,24.37
2023-04-20T11:36:58.134Z,24.39
2023-04-20T11:37:58.135Z,24.40
2023-04-20T11:38:58.104Z,24.41
2023-04-20T11:39:58.129Z,24.43
2023-04-20T11:40:58.074Z,24.44
2023-04-20T11:41:58.084Z,24.44
2023-04-20T11:42:58.046Z,24.44
2023-04-20T11:43:58.030Z,24.45
2023-04-20T11:44:58.080Z,24.46
2023-04-20T11:45:58.089Z,24.48
2023-04-20T11:46:58.123Z,24.48
2023-04-20T11:47:58.294Z,24.48
2023-04-20T11:48:58.193Z,24.51
2023-04-20T11:49:58.233Z,24.53
2023-04-20T11:50:58.274Z,24.55
2023-04-20T11:51:58.337Z,24.56
2023-04-20T11:52:58.340Z,24.58
2023-04-20T11:53:58.384Z,24.59
2023-04-20T11:54:58.425Z,24.60
2023-04-20T11:55:58.448Z,24.62
2023-04-20T11:56:58.478Z,24.66
2023-04-20T11:57:58.488Z,24.67
2023-04-20T11:58:58.518Z,24.67
2023-04-20T11:59:58.568Z,24.67
2023-04-20T12:00:58.562Z,24.65
2023-04-20T12:01:58.668Z,24.66
2023-04-20T12:02:58.681Z,24.67
2023-04-20T12:03:58.912Z,24.68
2023-04-20T12:04:58.757Z,24.68
2023-04-20T12:05:58.697Z,24.68
2023-04-20T12:06:58.723Z,24.68
2023-04-20T12:07:58.730Z,24.69
2023-04-20T12:08:58.760Z,24.68
2023-04-20T12:09:58.776Z,24.68
2023-04-20T12:10:58.904Z,24.69
2023-04-20T12:11:58.813Z,24.70
2023-04-20T12:12:58.823Z,24.71
2023-04-20T12:13:58.852Z,24.72
2023-04-20T12:14:58.878Z,24.73
2023-04-20T12:15:58.922Z,24.73
2023-04-20T12:16:58.907Z,24.73
2023-04-20T12:17:59.053Z,24.74
2023-04-20T12:18:58.921Z,24.75
2023-04-20T12:19:58.948Z,24.76
2023-04-20T12:20:58.957Z,24.76
2023-04-20T12:21:58.959Z,24.76
2023-04-20T12:22:59.275Z,24.76
2023-04-20T12:23:58.974Z,24.77
2023-04-20T12:24:58.938Z,24.78
2023-04-20T12:25:58.933Z,24.79
2023-04-20T12:26:58.899Z,24.80
2023-04-20T12:27:58.870Z,24.81
2023-04-20T12:28:58.868Z,24.81
2023-04-20T12:29:58.837Z,24.82
2023-04-20T12:30:58.846Z,24.82
2023-04-20T12:31:58.869Z,24.82
2023-04-20T12:32:58.835Z,24.80
2023-04-20T12:33:58.778Z,24.80
2023-04-20T12:34:58.753Z,24.80
2023-04-20T12:35:58.716Z,24.81
2023-04-20T12:36:58.706Z,24.82
2023-04-20T12:37:58.685Z,24.81
2023-04-20T12:38:58.653Z,24.82
2023-04-20T12:39:58.659Z,24.81
2023-04-20T12:40:58.619Z,24.82
2023-04-20T12:41:58.610Z,24.83
2023-04-20T12:42:58.639Z,24.82
2023-04-20T12:43:58.632Z,24.83
2023-04-20T12:44:58.630Z,24.83
2023-04-20T12:45:58.631Z,24.83
2023-04-20T12:46:58.701Z,24.84
2023-04-20T12:48:00.391Z,24.84
2023-04-20T12:48:58.708Z,24.84
2023-04-20T12:49:58.640Z,24.83
2023-04-20T12:50:58.663Z,24.84
2023-04-20T12:51:58.678Z,24.85
2023-04-20T12:52:58.731Z,24.86
2023-04-20T12:53:58.670Z,24.87